sensor_id;sensor_type;location;lat;lon;timestamp;temperature;humidity
23233;DHT22;11785;49.500;8.288;2023-12-22T00:02:21;5.80;99.90
23233;DHT22;11785;49.500;8.288;2023-12-22T00:04:46;5.80;99.90
23233;DHT22;11785;49.500;8.288;2023-12-22T00:07:12;5.70;99.90
23233;DHT22;11785;49.500;8.288;2023-12-22T00:09:37;5.70;99.90
23233;DHT22;11785;49.500;8.288;2023-12-22T00:12:03;5.70;99.90
23233;DHT22;11785;49.500;8.288;2023-12-22T00:14:29;5.70;99.90
23233;DHT22;11785;49.500;8.288;2023-12-22T00:16:54;5.80;99.90
23233;DHT22;11785;49.500;8.288;2023-12-22T00:19:20;5.80;99.90
23233;DHT22;11785;49.500;8.288;2023-12-22T00:21:45;5.80;99.90
23233;DHT22;11785;49.500;8.288;2023-12-22T00:24:11;5.80;99.90
23233;DHT22;11785;49.500;8.288;2023-12-22T00:26:36;5.80;99.90
23233;DHT22;11785;49.500;8.288;2023-12-22T00:29:02;5.80;99.90
23233;DHT22;11785;49.500;8.288;2023-12-22T00:31:28;5.90;99.90
23233;DHT22;11785;49.500;8.288;2023-12-22T00:33:53;5.90;99.90
23233;DHT22;11785;49.500;8.288;2023-12-22T00:36:19;5.90;99.90
23233;DHT22;11785;49.500;8.288;2023-12-22T00:38:48;5.90;99.90
23233;DHT22;11785;49.500;8.288;2023-12-22T00:41:13;5.90;99.90
23233;DHT22;11785;49.500;8.288;2023-12-22T00:43:39;5.80;99.90
23233;DHT22;11785;49.500;8.288;2023-12-22T00:46:05;5.80;99.90
23233;DHT22;11785;49.500;8.288;2023-12-22T00:48:30;5.80;99.90
23233;DHT22;11785;49.500;8.288;2023-12-22T00:50:56;5.80;99.90
23233;DHT22;11785;49.500;8.288;2023-12-22T00:53:21;5.80;99.90
23233;DHT22;11785;49.500;8.288;2023-12-22T00:55:47;5.80;99.90
23233;DHT22;11785;49.500;8.288;2023-12-22T00:58:12;5.80;99.90
23233;DHT22;11785;49.500;8.288;2023-12-22T01:00:38;5.90;99.90
23233;DHT22;11785;49.500;8.288;2023-12-22T01:03:04;5.90;99.90
23233;DHT22;11785;49.500;8.288;2023-12-22T01:05:29;6.00;99.90
23233;DHT22;11785;49.500;8.288;2023-12-22T01:07:55;6.00;99.90
23233;DHT22;11785;49.500;8.288;2023-12-22T01:10:20;6.00;99.90
23233;DHT22;11785;49.500;8.288;2023-12-22T01:12:46;6.00;99.90
23233;DHT22;11785;49.500;8.288;2023-12-22T01:15:12;6.00;99.90
23233;DHT22;11785;49.500;8.288;2023-12-22T01:17:37;6.10;99.90
23233;DHT22;11785;49.500;8.288;2023-12-22T01:20:04;6.30;99.90
23233;DHT22;11785;49.500;8.288;2023-12-22T01:22:29;6.30;99.90
23233;DHT22;11785;49.500;8.288;2023-12-22T01:24:57;6.30;99.90
23233;DHT22;11785;49.500;8.288;2023-12-22T01:27:23;6.30;99.90
23233;DHT22;11785;49.500;8.288;2023-12-22T01:29:48;6.40;99.90
23233;DHT22;11785;49.500;8.288;2023-12-22T01:32:14;6.40;99.90
23233;DHT22;11785;49.500;8.288;2023-12-22T01:34:39;6.50;99.90
23233;DHT22;11785;49.500;8.288;2023-12-22T01:37:05;6.80;99.90
23233;DHT22;11785;49.500;8.288;2023-12-22T01:39:31;7.30;99.90
23233;DHT22;11785;49.500;8.288;2023-12-22T01:41:56;7.20;99.90
23233;DHT22;11785;49.500;8.288;2023-12-22T01:44:22;7.40;99.90
23233;DHT22;11785;49.500;8.288;2023-12-22T01:46:49;7.60;99.90
23233;DHT22;11785;49.500;8.288;2023-12-22T01:49:15;7.70;99.90
23233;DHT22;11785;49.500;8.288;2023-12-22T01:51:41;7.80;99.90
23233;DHT22;11785;49.500;8.288;2023-12-22T01:54:07;7.80;99.90
23233;DHT22;11785;49.500;8.288;2023-12-22T01:56:33;8.00;99.90
23233;DHT22;11785;49.500;8.288;2023-12-22T01:59:00;8.00;99.90
23233;DHT22;11785;49.500;8.288;2023-12-22T02:01:28;8.10;99.90
23233;DHT22;11785;49.500;8.288;2023-12-22T02:03:54;8.20;99.90
23233;DHT22;11785;49.500;8.288;2023-12-22T02:06:20;8.30;99.90
23233;DHT22;11785;49.500;8.288;2023-12-22T02:08:47;8.40;99.90
23233;DHT22;11785;49.500;8.288;2023-12-22T02:11:13;8.50;99.90
23233;DHT22;11785;49.500;8.288;2023-12-22T02:13:39;8.30;99.90
23233;DHT22;11785;49.500;8.288;2023-12-22T02:16:17;8.20;99.90
23233;DHT22;11785;49.500;8.288;2023-12-22T02:18:47;8.10;99.90
23233;DHT22;11785;49.500;8.288;2023-12-22T02:21:16;8.00;99.90
23233;DHT22;11785;49.500;8.288;2023-12-22T02:23:41;7.90;99.90
23233;DHT22;11785;49.500;8.288;2023-12-22T02:26:15;8.00;99.90
23233;DHT22;11785;49.500;8.288;2023-12-22T02:28:44;8.20;99.90
23233;DHT22;11785;49.500;8.288;2023-12-22T02:31:22;8.30;99.90
23233;DHT22;11785;49.500;8.288;2023-12-22T02:33:52;8.40;99.90
23233;DHT22;11785;49.500;8.288;2023-12-22T02:36:21;8.40;99.90
23233;DHT22;11785;49.500;8.288;2023-12-22T02:38:48;8.30;99.90
23233;DHT22;11785;49.500;8.288;2023-12-22T02:41:14;8.30;99.90
23233;DHT22;11785;49.500;8.288;2023-12-22T02:43:40;8.20;99.90
23233;DHT22;11785;49.500;8.288;2023-12-22T02:46:13;8.20;99.90
23233;DHT22;11785;49.500;8.288;2023-12-22T02:48:39;8.20;99.90
23233;DHT22;11785;49.500;8.288;2023-12-22T02:51:05;8.10;99.90
23233;DHT22;11785;49.500;8.288;2023-12-22T02:53:30;8.10;99.90
23233;DHT22;11785;49.500;8.288;2023-12-22T02:55:56;8.20;99.90
23233;DHT22;11785;49.500;8.288;2023-12-22T02:58:21;8.20;99.90
23233;DHT22;11785;49.500;8.288;2023-12-22T03:00:47;8.20;99.90
23233;DHT22;11785;49.500;8.288;2023-12-22T03:03:12;8.40;99.90
23233;DHT22;11785;49.500;8.288;2023-12-22T03:05:38;8.40;99.90
23233;DHT22;11785;49.500;8.288;2023-12-22T03:08:04;8.30;99.90
23233;DHT22;11785;49.500;8.288;2023-12-22T03:10:30;8.30;99.90
23233;DHT22;11785;49.500;8.288;2023-12-22T03:12:55;8.20;99.90
23233;DHT22;11785;49.500;8.288;2023-12-22T03:15:21;8.20;99.90
23233;DHT22;11785;49.500;8.288;2023-12-22T03:17:47;8.10;99.90
23233;DHT22;11785;49.500;8.288;2023-12-22T03:20:12;8.10;99.90
23233;DHT22;11785;49.500;8.288;2023-12-22T03:22:38;8.20;99.90
23233;DHT22;11785;49.500;8.288;2023-12-22T03:25:04;8.40;99.90
23233;DHT22;11785;49.500;8.288;2023-12-22T03:27:29;8.50;99.90
23233;DHT22;11785;49.500;8.288;2023-12-22T03:29:56;8.50;99.90
23233;DHT22;11785;49.500;8.288;2023-12-22T03:32:21;8.60;99.90
23233;DHT22;11785;49.500;8.288;2023-12-22T03:34:47;8.70;99.90
23233;DHT22;11785;49.500;8.288;2023-12-22T03:37:13;8.70;99.90
23233;DHT22;11785;49.500;8.288;2023-12-22T03:39:38;8.80;99.90
23233;DHT22;11785;49.500;8.288;2023-12-22T03:42:04;8.90;99.90
23233;DHT22;11785;49.500;8.288;2023-12-22T03:44:29;9.00;99.90
23233;DHT22;11785;49.500;8.288;2023-12-22T03:46:55;9.00;99.90
23233;DHT22;11785;49.500;8.288;2023-12-22T03:49:21;9.00;99.90
23233;DHT22;11785;49.500;8.288;2023-12-22T03:52:07;9.00;99.90
23233;DHT22;11785;49.500;8.288;2023-12-22T03:54:32;9.10;99.50
23233;DHT22;11785;49.500;8.288;2023-12-22T03:56:58;9.10;99.40
23233;DHT22;11785;49.500;8.288;2023-12-22T03:59:23;9.10;99.20
23233;DHT22;11785;49.500;8.288;2023-12-22T04:01:52;9.00;99.90
23233;DHT22;11785;49.500;8.288;2023-12-22T04:04:18;8.90;99.90
23233;DHT22;11785;49.500;8.288;2023-12-22T04:06:44;8.90;99.90
23233;DHT22;11785;49.500;8.288;2023-12-22T04:09:10;8.80;99.90
23233;DHT22;11785;49.500;8.288;2023-12-22T04:11:35;8.80;99.90
23233;DHT22;11785;49.500;8.288;2023-12-22T04:14:02;8.80;99.90
23233;DHT22;11785;49.500;8.288;2023-12-22T04:16:27;8.80;99.90
23233;DHT22;11785;49.500;8.288;2023-12-22T04:18:53;8.70;99.90
23233;DHT22;11785;49.500;8.288;2023-12-22T04:21:19;8.70;99.90
23233;DHT22;11785;49.500;8.288;2023-12-22T04:23:44;8.80;99.90
23233;DHT22;11785;49.500;8.288;2023-12-22T04:26:10;8.90;99.90
23233;DHT22;11785;49.500;8.288;2023-12-22T04:28:35;8.90;99.90
23233;DHT22;11785;49.500;8.288;2023-12-22T04:31:01;8.90;99.90
23233;DHT22;11785;49.500;8.288;2023-12-22T04:33:27;9.00;99.90
23233;DHT22;11785;49.500;8.288;2023-12-22T04:35:52;9.00;99.90
23233;DHT22;11785;49.500;8.288;2023-12-22T04:38:18;9.00;99.90
23233;DHT22;11785;49.500;8.288;2023-12-22T04:40:43;9.00;99.80
23233;DHT22;11785;49.500;8.288;2023-12-22T04:43:09;9.00;99.90
23233;DHT22;11785;49.500;8.288;2023-12-22T04:45:35;9.00;99.90
23233;DHT22;11785;49.500;8.288;2023-12-22T04:48:00;8.80;99.90
23233;DHT22;11785;49.500;8.288;2023-12-22T04:50:26;8.60;99.90
23233;DHT22;11785;49.500;8.288;2023-12-22T04:52:51;8.20;99.90
23233;DHT22;11785;49.500;8.288;2023-12-22T04:55:17;7.90;99.90
23233;DHT22;11785;49.500;8.288;2023-12-22T04:57:43;7.60;99.90
23233;DHT22;11785;49.500;8.288;2023-12-22T05:00:09;7.50;99.90
23233;DHT22;11785;49.500;8.288;2023-12-22T05:02:34;7.30;99.90
23233;DHT22;11785;49.500;8.288;2023-12-22T05:05:00;7.30;99.90
23233;DHT22;11785;49.500;8.288;2023-12-22T05:07:27;7.20;99.90
23233;DHT22;11785;49.500;8.288;2023-12-22T05:09:53;7.10;99.90
23233;DHT22;11785;49.500;8.288;2023-12-22T05:12:19;7.00;99.90
23233;DHT22;11785;49.500;8.288;2023-12-22T05:14:45;7.00;99.90
23233;DHT22;11785;49.500;8.288;2023-12-22T05:17:10;7.00;99.90
23233;DHT22;11785;49.500;8.288;2023-12-22T05:19:36;6.90;99.90
23233;DHT22;11785;49.500;8.288;2023-12-22T05:22:01;7.00;99.90
23233;DHT22;11785;49.500;8.288;2023-12-22T05:24:27;7.10;99.90
23233;DHT22;11785;49.500;8.288;2023-12-22T05:26:53;7.10;99.90
23233;DHT22;11785;49.500;8.288;2023-12-22T05:29:18;7.00;99.90
23233;DHT22;11785;49.500;8.288;2023-12-22T05:31:45;7.00;99.90
23233;DHT22;11785;49.500;8.288;2023-12-22T05:34:10;7.00;99.90
23233;DHT22;11785;49.500;8.288;2023-12-22T05:36:36;6.90;99.90
23233;DHT22;11785;49.500;8.288;2023-12-22T05:39:01;6.90;99.90
23233;DHT22;11785;49.500;8.288;2023-12-22T05:41:27;7.00;99.90
23233;DHT22;11785;49.500;8.288;2023-12-22T05:43:53;7.20;99.90
23233;DHT22;11785;49.500;8.288;2023-12-22T05:46:19;7.30;99.90
23233;DHT22;11785;49.500;8.288;2023-12-22T05:48:45;7.30;99.90
23233;DHT22;11785;49.500;8.288;2023-12-22T05:51:10;7.20;99.90
23233;DHT22;11785;49.500;8.288;2023-12-22T05:53:39;7.20;99.90
23233;DHT22;11785;49.500;8.288;2023-12-22T05:56:16;7.20;99.90
23233;DHT22;11785;49.500;8.288;2023-12-22T05:58:42;7.30;99.90
23233;DHT22;11785;49.500;8.288;2023-12-22T06:01:13;7.40;99.90
23233;DHT22;11785;49.500;8.288;2023-12-22T06:03:38;7.50;99.90
23233;DHT22;11785;49.500;8.288;2023-12-22T06:06:04;7.50;99.90
23233;DHT22;11785;49.500;8.288;2023-12-22T06:08:30;7.40;99.90
23233;DHT22;11785;49.500;8.288;2023-12-22T06:10:55;7.50;99.90
23233;DHT22;11785;49.500;8.288;2023-12-22T06:13:21;7.50;99.90
23233;DHT22;11785;49.500;8.288;2023-12-22T06:15:46;7.60;99.90
23233;DHT22;11785;49.500;8.288;2023-12-22T06:18:12;7.60;99.90
23233;DHT22;11785;49.500;8.288;2023-12-22T06:20:37;7.80;99.90
23233;DHT22;11785;49.500;8.288;2023-12-22T06:23:03;7.90;99.90
23233;DHT22;11785;49.500;8.288;2023-12-22T06:25:29;8.10;99.90
23233;DHT22;11785;49.500;8.288;2023-12-22T06:27:55;8.20;99.90
23233;DHT22;11785;49.500;8.288;2023-12-22T06:30:20;8.30;99.90
23233;DHT22;11785;49.500;8.288;2023-12-22T06:32:46;8.40;99.90
23233;DHT22;11785;49.500;8.288;2023-12-22T06:35:13;8.50;99.90
23233;DHT22;11785;49.500;8.288;2023-12-22T06:37:39;8.50;99.90
23233;DHT22;11785;49.500;8.288;2023-12-22T06:40:05;8.60;99.90
23233;DHT22;11785;49.500;8.288;2023-12-22T06:42:30;8.60;99.90
23233;DHT22;11785;49.500;8.288;2023-12-22T06:44:56;8.60;99.90
23233;DHT22;11785;49.500;8.288;2023-12-22T06:47:21;8.60;99.90
23233;DHT22;11785;49.500;8.288;2023-12-22T06:49:47;8.60;99.90
23233;DHT22;11785;49.500;8.288;2023-12-22T06:52:12;8.60;99.90
23233;DHT22;11785;49.500;8.288;2023-12-22T06:54:38;8.50;99.90
23233;DHT22;11785;49.500;8.288;2023-12-22T06:57:03;8.50;99.90
23233;DHT22;11785;49.500;8.288;2023-12-22T06:59:29;8.60;99.90
23233;DHT22;11785;49.500;8.288;2023-12-22T07:01:55;8.60;99.90
23233;DHT22;11785;49.500;8.288;2023-12-22T07:04:21;8.70;99.90
23233;DHT22;11785;49.500;8.288;2023-12-22T07:06:46;8.80;99.90
23233;DHT22;11785;49.500;8.288;2023-12-22T07:11:49;8.80;99.70
23233;DHT22;11785;49.500;8.288;2023-12-22T07:14:21;8.70;99.90
23233;DHT22;11785;49.500;8.288;2023-12-22T07:16:46;8.60;99.90
23233;DHT22;11785;49.500;8.288;2023-12-22T07:19:12;8.70;99.90
23233;DHT22;11785;49.500;8.288;2023-12-22T07:21:38;8.70;99.90
23233;DHT22;11785;49.500;8.288;2023-12-22T07:24:05;8.70;99.90
23233;DHT22;11785;49.500;8.288;2023-12-22T07:26:30;8.70;99.90
23233;DHT22;11785;49.500;8.288;2023-12-22T07:28:56;8.80;99.90
23233;DHT22;11785;49.500;8.288;2023-12-22T07:31:22;8.80;99.90
23233;DHT22;11785;49.500;8.288;2023-12-22T07:33:47;8.80;99.90
23233;DHT22;11785;49.500;8.288;2023-12-22T07:36:13;8.80;99.90
23233;DHT22;11785;49.500;8.288;2023-12-22T07:38:39;8.90;99.90
23233;DHT22;11785;49.500;8.288;2023-12-22T07:41:05;8.90;99.90
23233;DHT22;11785;49.500;8.288;2023-12-22T07:43:31;8.90;99.90
23233;DHT22;11785;49.500;8.288;2023-12-22T07:45:57;8.90;99.90
23233;DHT22;11785;49.500;8.288;2023-12-22T07:48:23;8.90;99.90
23233;DHT22;11785;49.500;8.288;2023-12-22T07:50:49;8.90;99.90
23233;DHT22;11785;49.500;8.288;2023-12-22T07:53:15;8.90;99.90
23233;DHT22;11785;49.500;8.288;2023-12-22T07:55:41;8.90;99.90
23233;DHT22;11785;49.500;8.288;2023-12-22T07:58:07;8.90;99.90
23233;DHT22;11785;49.500;8.288;2023-12-22T08:00:33;8.90;99.90
23233;DHT22;11785;49.500;8.288;2023-12-22T08:02:58;8.80;99.90
23233;DHT22;11785;49.500;8.288;2023-12-22T08:05:24;8.80;99.90
23233;DHT22;11785;49.500;8.288;2023-12-22T08:07:50;8.70;99.90
23233;DHT22;11785;49.500;8.288;2023-12-22T08:10:16;8.60;99.90
23233;DHT22;11785;49.500;8.288;2023-12-22T08:12:42;8.60;99.90
23233;DHT22;11785;49.500;8.288;2023-12-22T08:15:08;8.50;99.90
23233;DHT22;11785;49.500;8.288;2023-12-22T08:17:36;8.50;99.90
23233;DHT22;11785;49.500;8.288;2023-12-22T08:20:03;8.20;99.90
23233;DHT22;11785;49.500;8.288;2023-12-22T08:22:28;8.10;99.90
23233;DHT22;11785;49.500;8.288;2023-12-22T08:24:54;8.10;99.90
23233;DHT22;11785;49.500;8.288;2023-12-22T08:27:19;8.10;99.90
23233;DHT22;11785;49.500;8.288;2023-12-22T08:29:45;8.20;99.90
23233;DHT22;11785;49.500;8.288;2023-12-22T08:32:10;8.40;99.90
23233;DHT22;11785;49.500;8.288;2023-12-22T08:34:36;8.40;99.90
23233;DHT22;11785;49.500;8.288;2023-12-22T08:37:02;8.50;99.90
23233;DHT22;11785;49.500;8.288;2023-12-22T08:39:27;8.50;99.90
23233;DHT22;11785;49.500;8.288;2023-12-22T08:41:53;8.60;99.90
23233;DHT22;11785;49.500;8.288;2023-12-22T08:44:19;8.60;99.90
23233;DHT22;11785;49.500;8.288;2023-12-22T08:46:44;8.70;99.90
23233;DHT22;11785;49.500;8.288;2023-12-22T08:49:10;8.80;99.90
23233;DHT22;11785;49.500;8.288;2023-12-22T08:51:36;8.90;99.90
23233;DHT22;11785;49.500;8.288;2023-12-22T08:54:02;8.90;99.90
23233;DHT22;11785;49.500;8.288;2023-12-22T08:56:29;9.00;99.90
23233;DHT22;11785;49.500;8.288;2023-12-22T08:58:55;9.10;99.90
23233;DHT22;11785;49.500;8.288;2023-12-22T09:01:21;9.10;99.90
23233;DHT22;11785;49.500;8.288;2023-12-22T09:03:48;9.20;99.90
23233;DHT22;11785;49.500;8.288;2023-12-22T09:06:17;9.20;99.90
23233;DHT22;11785;49.500;8.288;2023-12-22T09:08:44;9.30;99.90
23233;DHT22;11785;49.500;8.288;2023-12-22T09:11:15;9.30;99.90
23233;DHT22;11785;49.500;8.288;2023-12-22T09:13:41;9.40;99.90
23233;DHT22;11785;49.500;8.288;2023-12-22T09:16:08;9.40;99.90
23233;DHT22;11785;49.500;8.288;2023-12-22T09:18:34;9.40;99.90
23233;DHT22;11785;49.500;8.288;2023-12-22T09:21:00;9.50;99.90
23233;DHT22;11785;49.500;8.288;2023-12-22T09:23:26;9.60;99.90
23233;DHT22;11785;49.500;8.288;2023-12-22T09:25:51;9.60;99.90
23233;DHT22;11785;49.500;8.288;2023-12-22T09:28:17;9.70;99.30
23233;DHT22;11785;49.500;8.288;2023-12-22T09:30:42;9.70;99.40
23233;DHT22;11785;49.500;8.288;2023-12-22T09:33:12;9.70;99.50
23233;DHT22;11785;49.500;8.288;2023-12-22T09:35:38;9.80;99.00
23233;DHT22;11785;49.500;8.288;2023-12-22T09:38:10;9.80;99.00
23233;DHT22;11785;49.500;8.288;2023-12-22T09:40:36;9.80;99.00
23233;DHT22;11785;49.500;8.288;2023-12-22T09:43:03;9.80;98.50
23233;DHT22;11785;49.500;8.288;2023-12-22T09:45:30;9.80;98.70
23233;DHT22;11785;49.500;8.288;2023-12-22T09:48:00;9.80;99.00
23233;DHT22;11785;49.500;8.288;2023-12-22T09:50:30;9.80;99.10
23233;DHT22;11785;49.500;8.288;2023-12-22T09:52:56;9.80;98.70
23233;DHT22;11785;49.500;8.288;2023-12-22T09:55:22;9.90;98.20
23233;DHT22;11785;49.500;8.288;2023-12-22T09:57:49;10.00;97.90
23233;DHT22;11785;49.500;8.288;2023-12-22T10:00:15;10.10;97.10
23233;DHT22;11785;49.500;8.288;2023-12-22T10:02:42;10.10;97.30
23233;DHT22;11785;49.500;8.288;2023-12-22T10:05:08;10.10;97.00
23233;DHT22;11785;49.500;8.288;2023-12-22T10:07:35;10.10;97.10
23233;DHT22;11785;49.500;8.288;2023-12-22T10:10:02;10.10;97.20
23233;DHT22;11785;49.500;8.288;2023-12-22T10:12:29;10.10;97.10
23233;DHT22;11785;49.500;8.288;2023-12-22T10:14:56;10.10;97.20
23233;DHT22;11785;49.500;8.288;2023-12-22T10:17:23;10.10;97.50
23233;DHT22;11785;49.500;8.288;2023-12-22T10:19:48;10.20;96.90
23233;DHT22;11785;49.500;8.288;2023-12-22T10:22:14;10.20;96.70
23233;DHT22;11785;49.500;8.288;2023-12-22T10:24:41;10.20;96.80
23233;DHT22;11785;49.500;8.288;2023-12-22T10:27:13;10.20;96.70
23233;DHT22;11785;49.500;8.288;2023-12-22T10:29:39;10.30;96.70
23233;DHT22;11785;49.500;8.288;2023-12-22T10:32:06;10.30;96.50
23233;DHT22;11785;49.500;8.288;2023-12-22T10:34:32;10.30;96.70
23233;DHT22;11785;49.500;8.288;2023-12-22T10:37:01;10.30;96.70
23233;DHT22;11785;49.500;8.288;2023-12-22T10:39:31;10.40;96.30
23233;DHT22;11785;49.500;8.288;2023-12-22T10:41:57;10.40;96.20
23233;DHT22;11785;49.500;8.288;2023-12-22T10:44:26;10.40;96.30
23233;DHT22;11785;49.500;8.288;2023-12-22T10:46:52;10.40;96.20
23233;DHT22;11785;49.500;8.288;2023-12-22T10:49:20;10.40;96.30
23233;DHT22;11785;49.500;8.288;2023-12-22T10:51:45;10.50;95.70
23233;DHT22;11785;49.500;8.288;2023-12-22T10:54:11;10.50;95.90
23233;DHT22;11785;49.500;8.288;2023-12-22T10:56:37;10.40;96.10
23233;DHT22;11785;49.500;8.288;2023-12-22T10:59:02;10.40;96.30
23233;DHT22;11785;49.500;8.288;2023-12-22T11:01:30;10.40;96.70
23233;DHT22;11785;49.500;8.288;2023-12-22T11:04:01;10.30;97.80
23233;DHT22;11785;49.500;8.288;2023-12-22T11:06:35;9.90;99.90
23233;DHT22;11785;49.500;8.288;2023-12-22T11:09:06;9.70;99.90
23233;DHT22;11785;49.500;8.288;2023-12-22T11:11:36;9.60;99.90
23233;DHT22;11785;49.500;8.288;2023-12-22T11:14:02;9.40;99.90
23233;DHT22;11785;49.500;8.288;2023-12-22T11:16:29;9.30;99.90
23233;DHT22;11785;49.500;8.288;2023-12-22T11:18:55;9.30;99.90
23233;DHT22;11785;49.500;8.288;2023-12-22T11:21:24;9.30;99.90
23233;DHT22;11785;49.500;8.288;2023-12-22T11:23:51;9.30;99.90
23233;DHT22;11785;49.500;8.288;2023-12-22T11:26:21;9.30;99.90
23233;DHT22;11785;49.500;8.288;2023-12-22T11:28:51;9.40;99.90
23233;DHT22;11785;49.500;8.288;2023-12-22T11:31:17;9.50;99.90
23233;DHT22;11785;49.500;8.288;2023-12-22T11:33:45;9.50;99.90
23233;DHT22;11785;49.500;8.288;2023-12-22T11:36:12;9.50;99.90
23233;DHT22;11785;49.500;8.288;2023-12-22T11:38:42;9.50;99.90
23233;DHT22;11785;49.500;8.288;2023-12-22T11:41:09;9.50;99.90
23233;DHT22;11785;49.500;8.288;2023-12-22T11:43:37;9.60;99.90
23233;DHT22;11785;49.500;8.288;2023-12-22T11:46:03;9.70;99.90
23233;DHT22;11785;49.500;8.288;2023-12-22T11:48:32;9.70;99.90
23233;DHT22;11785;49.500;8.288;2023-12-22T11:50:58;9.80;99.90
23233;DHT22;11785;49.500;8.288;2023-12-22T11:53:25;9.90;99.90
23233;DHT22;11785;49.500;8.288;2023-12-22T11:56:05;10.00;99.90
23233;DHT22;11785;49.500;8.288;2023-12-22T11:58:41;10.00;99.90
23233;DHT22;11785;49.500;8.288;2023-12-22T12:01:14;10.10;99.90
23233;DHT22;11785;49.500;8.288;2023-12-22T12:03:49;10.10;99.90
23233;DHT22;11785;49.500;8.288;2023-12-22T12:08:57;10.20;99.90
23233;DHT22;11785;49.500;8.288;2023-12-22T12:11:23;10.20;99.90
23233;DHT22;11785;49.500;8.288;2023-12-22T12:13:50;10.30;99.90
23233;DHT22;11785;49.500;8.288;2023-12-22T12:16:20;10.20;99.90
23233;DHT22;11785;49.500;8.288;2023-12-22T12:18:49;10.20;99.90
23233;DHT22;11785;49.500;8.288;2023-12-22T12:21:16;10.20;99.90
23233;DHT22;11785;49.500;8.288;2023-12-22T12:23:42;10.20;99.90
23233;DHT22;11785;49.500;8.288;2023-12-22T12:26:08;10.20;99.90
23233;DHT22;11785;49.500;8.288;2023-12-22T12:28:36;10.20;99.90
23233;DHT22;11785;49.500;8.288;2023-12-22T12:31:07;10.10;99.90
23233;DHT22;11785;49.500;8.288;2023-12-22T12:33:35;10.00;99.90
23233;DHT22;11785;49.500;8.288;2023-12-22T12:36:02;9.90;99.90
23233;DHT22;11785;49.500;8.288;2023-12-22T12:38:52;9.80;99.90
23233;DHT22;11785;49.500;8.288;2023-12-22T12:41:27;9.70;99.90
23233;DHT22;11785;49.500;8.288;2023-12-22T12:43:54;9.70;99.90
23233;DHT22;11785;49.500;8.288;2023-12-22T12:46:21;9.60;99.90
23233;DHT22;11785;49.500;8.288;2023-12-22T12:48:47;9.60;99.90
23233;DHT22;11785;49.500;8.288;2023-12-22T12:51:12;9.50;99.90
23233;DHT22;11785;49.500;8.288;2023-12-22T12:53:38;9.50;99.90
23233;DHT22;11785;49.500;8.288;2023-12-22T12:56:04;9.50;99.90
23233;DHT22;11785;49.500;8.288;2023-12-22T12:58:31;9.40;99.90
23233;DHT22;11785;49.500;8.288;2023-12-22T13:01:05;9.60;99.90
23233;DHT22;11785;49.500;8.288;2023-12-22T13:03:30;9.60;99.90
23233;DHT22;11785;49.500;8.288;2023-12-22T13:06:08;9.70;99.90
23233;DHT22;11785;49.500;8.288;2023-12-22T13:08:34;9.70;99.90
23233;DHT22;11785;49.500;8.288;2023-12-22T13:11:01;9.90;99.90
23233;DHT22;11785;49.500;8.288;2023-12-22T13:13:27;10.00;99.90
23233;DHT22;11785;49.500;8.288;2023-12-22T13:15:52;10.00;99.90
23233;DHT22;11785;49.500;8.288;2023-12-22T13:18:18;10.10;99.90
23233;DHT22;11785;49.500;8.288;2023-12-22T13:20:44;10.20;99.90
23233;DHT22;11785;49.500;8.288;2023-12-22T13:23:09;10.20;99.90
23233;DHT22;11785;49.500;8.288;2023-12-22T13:25:39;10.30;99.90
23233;DHT22;11785;49.500;8.288;2023-12-22T13:28:05;10.40;99.90
23233;DHT22;11785;49.500;8.288;2023-12-22T13:30:37;10.40;99.90
23233;DHT22;11785;49.500;8.288;2023-12-22T13:33:06;10.50;99.90
23233;DHT22;11785;49.500;8.288;2023-12-22T13:35:31;10.60;99.90
23233;DHT22;11785;49.500;8.288;2023-12-22T13:37:58;10.60;99.90
23233;DHT22;11785;49.500;8.288;2023-12-22T13:40:24;10.60;99.90
23233;DHT22;11785;49.500;8.288;2023-12-22T13:42:59;10.60;99.90
23233;DHT22;11785;49.500;8.288;2023-12-22T13:45:27;10.60;99.90
23233;DHT22;11785;49.500;8.288;2023-12-22T13:47:53;10.70;99.90
23233;DHT22;11785;49.500;8.288;2023-12-22T13:50:20;10.70;99.90
23233;DHT22;11785;49.500;8.288;2023-12-22T13:52:49;10.70;99.90
23233;DHT22;11785;49.500;8.288;2023-12-22T13:55:17;10.70;99.90
23233;DHT22;11785;49.500;8.288;2023-12-22T13:57:44;10.80;99.90
23233;DHT22;11785;49.500;8.288;2023-12-22T14:02:45;10.90;99.90
23233;DHT22;11785;49.500;8.288;2023-12-22T14:05:11;10.90;99.90
23233;DHT22;11785;49.500;8.288;2023-12-22T14:07:37;10.90;99.90
23233;DHT22;11785;49.500;8.288;2023-12-22T14:10:06;10.90;99.90
23233;DHT22;11785;49.500;8.288;2023-12-22T14:12:32;10.90;99.90
23233;DHT22;11785;49.500;8.288;2023-12-22T14:14:58;10.90;99.90
23233;DHT22;11785;49.500;8.288;2023-12-22T14:17:24;10.90;99.90
23233;DHT22;11785;49.500;8.288;2023-12-22T14:19:49;10.80;99.90
23233;DHT22;11785;49.500;8.288;2023-12-22T14:22:15;10.60;99.90
23233;DHT22;11785;49.500;8.288;2023-12-22T14:24:41;10.60;99.90
23233;DHT22;11785;49.500;8.288;2023-12-22T14:27:06;10.60;99.90
23233;DHT22;11785;49.500;8.288;2023-12-22T14:29:32;10.60;99.90
23233;DHT22;11785;49.500;8.288;2023-12-22T14:31:58;10.60;99.90
23233;DHT22;11785;49.500;8.288;2023-12-22T14:34:24;10.60;99.90
23233;DHT22;11785;49.500;8.288;2023-12-22T14:36:50;10.70;99.90
23233;DHT22;11785;49.500;8.288;2023-12-22T14:39:15;10.70;99.90
23233;DHT22;11785;49.500;8.288;2023-12-22T14:41:41;10.70;99.90
23233;DHT22;11785;49.500;8.288;2023-12-22T14:44:12;10.60;99.90
23233;DHT22;11785;49.500;8.288;2023-12-22T14:46:38;10.60;99.90
23233;DHT22;11785;49.500;8.288;2023-12-22T14:49:05;10.60;99.90
23233;DHT22;11785;49.500;8.288;2023-12-22T14:51:35;10.50;99.90
23233;DHT22;11785;49.500;8.288;2023-12-22T14:54:01;10.40;99.90
23233;DHT22;11785;49.500;8.288;2023-12-22T14:56:27;10.20;99.90
23233;DHT22;11785;49.500;8.288;2023-12-22T14:58:52;10.10;99.90
23233;DHT22;11785;49.500;8.288;2023-12-22T15:01:18;10.10;99.90
23233;DHT22;11785;49.500;8.288;2023-12-22T15:03:43;10.00;99.90
23233;DHT22;11785;49.500;8.288;2023-12-22T15:06:09;10.10;99.90
23233;DHT22;11785;49.500;8.288;2023-12-22T15:08:34;10.00;99.90
23233;DHT22;11785;49.500;8.288;2023-12-22T15:11:00;10.00;99.90
23233;DHT22;11785;49.500;8.288;2023-12-22T15:13:26;10.10;99.90
23233;DHT22;11785;49.500;8.288;2023-12-22T15:15:52;10.10;99.90
23233;DHT22;11785;49.500;8.288;2023-12-22T15:18:17;10.20;99.90
23233;DHT22;11785;49.500;8.288;2023-12-22T15:20:43;10.20;99.90
23233;DHT22;11785;49.500;8.288;2023-12-22T15:23:08;10.30;99.90
23233;DHT22;11785;49.500;8.288;2023-12-22T15:25:34;10.30;99.90
23233;DHT22;11785;49.500;8.288;2023-12-22T15:28:00;10.30;99.90
23233;DHT22;11785;49.500;8.288;2023-12-22T15:30:26;10.40;99.90
23233;DHT22;11785;49.500;8.288;2023-12-22T15:32:53;10.40;99.90
23233;DHT22;11785;49.500;8.288;2023-12-22T15:35:19;10.50;99.90
23233;DHT22;11785;49.500;8.288;2023-12-22T15:37:45;10.60;99.90
23233;DHT22;11785;49.500;8.288;2023-12-22T15:40:10;10.60;99.90
23233;DHT22;11785;49.500;8.288;2023-12-22T15:42:36;10.70;99.90
23233;DHT22;11785;49.500;8.288;2023-12-22T15:45:02;10.70;99.90
23233;DHT22;11785;49.500;8.288;2023-12-22T15:47:29;10.80;99.90